Current | Forecast
Updated: 7:00 PM JST on February 18, 2018
Observed at Okayama, Japan
Temperature 37°F
Humidity 56%
Dew Point 23°F
Wind West at 2 mph
Pressure 30.15 in (Steady)
Conditions Mostly Cloudy
Visibility 6.2 miles
UV 0 out of 16
Clouds (FEW) : 2500 ft
Mostly Cloudy (BKN) : 13000 ft
Yesterday's Maximum 46°F
Yesterday's Minimum 34°F approx.
Yesterday's Heating Degree Days 25 approx.
Sunrise6:48 AM JST
Sunset5:50 PM JST
Moon Rise8:10 AM JST
Moon Set8:05 PM JST
Moon PhaseMoon Phase
Waxing Crescent
Raw METARMETAR RJOB 181000Z 26002KT 9999 FEW025 BKN130 03/M05 Q1021


Monday
. High: 73° F.
Tuesday
. High: 75° F.
Wednesday
. High: 77° F.
Thursday
. High: 77° F.
Friday
. High: 78° F.
Saturday
. High: 77° F.
Sunday
. High: 78° F.
Monday
. High: 77° F.

Units: English | Metric

Find the Weather for any City, State or Zipcode, or Country:

U.S. State List | Severe Weather | Tropical Storms | Ski Conditions
United States | Canada | Central America | South America | Asia | Europe | Australia | Africa | Islands

Weather Underground

© Copyright 2018
The Weather Company, LLC